Time;durP1;ratioP1;P1;durP2;ratioP2;P2;SDS_P1;SDS_P2;PMS_P1;PMS_P2;Temp;Humidity;BMP_temperature;BMP_pressure;BME280_temperature;BME280_humidity;BME280_pressure;Samples;Min_cycle;Max_cycle;Signal;HPM_P1;HPM_P2
2021/01/01 00:01:35;;;;;;;52.93;47.30;;;3.30;99.90;;;;;;5028293;28;20669;-91
2021/01/01 00:04:02;;;;;;;50.00;45.00;;;3.40;99.90;;;;;;5021968;28;20639;-90
2021/01/01 00:06:30;;;;;;;51.67;46.00;;;3.40;99.90;;;;;;5024794;28;20638;-89
2021/01/01 00:08:57;;;;;;;51.47;46.30;;;3.40;99.90;;;;;;5009654;28;20640;-89
2021/01/01 00:11:24;;;;;;;46.70;41.70;;;3.50;99.90;;;;;;5023016;28;20678;-90
2021/01/01 00:13:52;;;;;;;46.50;41.83;;;3.40;99.90;;;;;;5022114;28;20644;-90
2021/01/01 00:16:20;;;;;;;40.33;36.33;;;3.40;99.90;;;;;;4987349;28;20666;-90
2021/01/01 00:18:47;;;;;;;35.73;32.13;;;3.40;99.90;;;;;;5017134;28;20645;-89
2021/01/01 00:21:14;;;;;;;40.90;36.60;;;3.50;99.90;;;;;;5019908;28;20703;-89
2021/01/01 00:23:41;;;;;;;36.43;32.50;;;3.50;99.90;;;;;;5020674;28;20640;-89
2021/01/01 00:26:11;;;;;;;37.50;33.47;;;3.40;99.90;;;;;;5020588;28;20633;-90
2021/01/01 00:28:42;;;;;;;32.60;29.30;;;3.50;99.90;;;;;;5003937;28;20724;-90
2021/01/01 00:31:08;;;;;;;39.43;35.40;;;3.50;99.90;;;;;;5017766;28;20714;-89
2021/01/01 00:33:34;;;;;;;34.10;30.93;;;3.50;99.90;;;;;;5021222;28;20649;-89
2021/01/01 00:36:04;;;;;;;33.33;30.07;;;3.50;99.90;;;;;;5021455;28;20615;-89
2021/01/01 00:38:31;;;;;;;33.30;28.60;;;3.40;99.90;;;;;;5020096;28;20642;-89
2021/01/01 00:41:00;;;;;;;31.93;28.60;;;3.40;99.90;;;;;;5018502;28;20676;-88
2021/01/01 00:43:26;;;;;;;31.23;28.20;;;3.40;99.90;;;;;;5026676;28;20635;-88
2021/01/01 00:45:52;;;;;;;32.43;29.47;;;3.40;99.90;;;;;;5014339;28;20648;-87
2021/01/01 00:48:21;;;;;;;31.83;28.80;;;3.40;99.90;;;;;;5011763;28;21009;-88
2021/01/01 00:50:47;;;;;;;27.23;24.60;;;3.40;99.90;;;;;;5020033;28;20688;-88
2021/01/01 00:53:14;;;;;;;30.47;27.30;;;3.60;99.90;;;;;;5022745;28;20624;-89
2021/01/01 00:55:41;;;;;;;27.97;25.20;;;3.60;99.90;;;;;;5023388;28;20723;-89
2021/01/01 00:58:07;;;;;;;26.40;23.90;;;3.60;99.90;;;;;;5019603;28;20623;-89
2021/01/01 01:00:36;;;;;;;27.23;22.53;;;3.70;99.90;;;;;;5020780;28;20675;-89
2021/01/01 01:03:09;;;;;;;22.57;19.37;;;3.50;99.90;;;;;;5013702;28;20719;-88
2021/01/01 01:05:37;;;;;;;20.20;18.10;;;3.50;99.90;;;;;;5018141;28;20628;-88
2021/01/01 01:08:05;;;;;;;19.83;17.07;;;3.50;99.90;;;;;;5020840;28;20631;-88
2021/01/01 01:10:31;;;;;;;16.37;14.87;;;3.40;99.90;;;;;;5019056;28;21254;-88
2021/01/01 01:12:59;;;;;;;19.53;17.53;;;3.40;99.90;;;;;;5020490;28;20628;-88
2021/01/01 01:15:25;;;;;;;20.70;18.63;;;3.40;99.90;;;;;;5023270;28;20659;-88
2021/01/01 01:17:51;;;;;;;19.90;17.90;;;3.50;99.90;;;;;;5025157;28;20634;-90
2021/01/01 01:20:18;;;;;;;20.20;18.30;;;3.50;99.90;;;;;;5020799;28;20685;-91
2021/01/01 01:22:44;;;;;;;16.50;15.00;;;3.60;99.90;;;;;;5014945;28;20697;-90
2021/01/01 01:25:11;;;;;;;18.47;16.43;;;3.70;99.90;;;;;;5027930;28;20651;-90
2021/01/01 01:27:38;;;;;;;14.17;12.93;;;3.70;99.90;;;;;;5022888;28;20627;-92
2021/01/01 01:30:06;;;;;;;16.43;14.83;;;3.70;99.90;;;;;;5027056;28;20704;-90
2021/01/01 01:32:33;;;;;;;15.97;14.47;;;3.70;99.90;;;;;;5026129;28;20654;-91
2021/01/01 01:34:59;;;;;;;17.40;15.77;;;3.70;99.90;;;;;;5016556;28;20635;-91
2021/01/01 01:37:26;;;;;;;18.70;16.90;;;3.70;99.90;;;;;;5009679;28;20644;-91
2021/01/01 01:39:52;;;;;;;17.33;15.60;;;3.70;99.90;;;;;;5018681;28;21098;-91
2021/01/01 01:42:18;;;;;;;15.80;14.30;;;3.80;99.90;;;;;;5022515;28;20722;-90
2021/01/01 01:44:45;;;;;;;16.57;15.07;;;3.70;99.90;;;;;;5028516;28;20651;-91
2021/01/01 01:47:19;;;;;;;15.10;13.70;;;3.80;99.90;;;;;;5023919;28;20640;-91
2021/01/01 01:49:46;;;;;;;14.23;12.83;;;3.90;99.90;;;;;;5004646;28;21244;-90
2021/01/01 01:52:13;;;;;;;17.70;16.03;;;4.00;99.90;;;;;;5019879;28;20648;-90
2021/01/01 01:54:43;;;;;;;18.30;16.50;;;4.00;99.90;;;;;;5004990;28;20635;-91
2021/01/01 01:57:10;;;;;;;16.57;15.07;;;4.00;99.90;;;;;;5028435;28;20644;-89
2021/01/01 01:59:36;;;;;;;18.43;16.73;;;4.00;99.90;;;;;;5024892;28;21041;-89
2021/01/01 02:02:03;;;;;;;16.60;15.10;;;3.90;99.90;;;;;;5024584;28;21180;-91
2021/01/01 02:04:31;;;;;;;16.77;15.37;;;4.10;99.90;;;;;;5017855;28;20612;-91
2021/01/01 02:06:59;;;;;;;16.37;14.53;;;4.00;99.90;;;;;;5021846;28;20636;-90
2021/01/01 02:09:27;;;;;;;14.77;13.27;;;4.00;99.90;;;;;;5016728;28;20698;-90
2021/01/01 02:11:53;;;;;;;14.27;12.77;;;4.00;99.90;;;;;;5018894;28;20643;-90
2021/01/01 02:14:20;;;;;;;14.20;12.67;;;4.00;99.90;;;;;;5026070;28;20655;-91
2021/01/01 02:16:48;;;;;;;15.73;14.30;;;4.10;99.90;;;;;;5025921;28;20650;-91
2021/01/01 02:19:15;;;;;;;15.10;13.50;;;4.20;99.90;;;;;;5026701;28;20624;-90
2021/01/01 02:21:42;;;;;;;14.97;13.47;;;4.20;99.90;;;;;;5028216;28;21225;-91
2021/01/01 02:24:11;;;;;;;13.60;12.33;;;4.20;99.90;;;;;;5044763;28;20716;-91
2021/01/01 02:26:39;;;;;;;14.20;12.87;;;4.30;99.90;;;;;;5044701;28;20623;-91
2021/01/01 02:29:06;;;;;;;14.80;13.40;;;4.30;99.90;;;;;;5028227;28;20627;-92
2021/01/01 02:31:32;;;;;;;14.77;13.50;;;4.40;99.90;;;;;;5028022;28;20686;-92
2021/01/01 02:33:59;;;;;;;14.60;13.30;;;4.40;99.90;;;;;;5016624;28;20636;-91
2021/01/01 02:36:26;;;;;;;13.50;12.30;;;4.40;99.90;;;;;;5005829;28;20639;-90
2021/01/01 02:38:52;;;;;;;14.50;13.00;;;4.50;99.90;;;;;;5028190;28;20679;-88
2021/01/01 02:41:19;;;;;;;13.50;12.30;;;4.60;99.90;;;;;;5015110;28;20682;-90
2021/01/01 02:43:46;;;;;;;15.30;13.90;;;4.50;99.90;;;;;;5023987;28;21187;-89
2021/01/01 02:46:12;;;;;;;12.97;11.83;;;4.60;99.90;;;;;;5021682;28;20647;-89
2021/01/01 02:48:38;;;;;;;14.13;12.70;;;4.70;99.90;;;;;;5016281;28;21031;-90
2021/01/01 02:51:05;;;;;;;20.77;18.67;;;4.70;99.90;;;;;;5016836;28;20659;-88
2021/01/01 02:53:33;;;;;;;33.07;29.80;;;4.50;99.90;;;;;;5018171;28;21243;-89
2021/01/01 02:56:01;;;;;;;35.40;32.00;;;4.40;99.90;;;;;;5019538;28;20654;-89
2021/01/01 02:58:28;;;;;;;37.80;34.27;;;4.30;99.90;;;;;;5024801;28;20734;-89
2021/01/01 03:00:55;;;;;;;36.83;33.30;;;4.20;99.90;;;;;;5018834;28;21159;-91
2021/01/01 03:03:21;;;;;;;37.40;33.50;;;4.20;99.90;;;;;;5020434;28;21070;-89
2021/01/01 03:05:48;;;;;;;38.33;34.53;;;4.10;99.90;;;;;;5023539;28;20989;-89
2021/01/01 03:08:14;;;;;;;37.50;33.83;;;4.20;99.90;;;;;;5022529;28;20661;-91
2021/01/01 03:10:41;;;;;;;37.97;34.07;;;4.10;99.90;;;;;;5020706;28;20653;-91
2021/01/01 03:13:08;;;;;;;38.00;33.90;;;4.00;99.90;;;;;;5019182;28;21592;-91
2021/01/01 03:15:36;;;;;;;37.63;33.90;;;3.90;99.90;;;;;;5014255;28;20641;-91
2021/01/01 03:18:02;;;;;;;33.00;29.70;;;4.00;99.90;;;;;;5022854;28;20643;-92
2021/01/01 03:20:28;;;;;;;35.17;31.87;;;4.10;99.90;;;;;;5021973;28;20677;-93
2021/01/01 03:22:55;;;;;;;37.47;33.43;;;4.10;99.90;;;;;;5027280;28;20636;-92
2021/01/01 03:25:26;;;;;;;33.13;29.57;;;4.10;99.90;;;;;;5003542;28;20632;-90
2021/01/01 03:27:53;;;;;;;33.80;30.60;;;4.10;99.90;;;;;;5028510;28;20632;-90
2021/01/01 03:30:21;;;;;;;29.73;26.93;;;4.10;99.90;;;;;;5025513;28;20655;-90
2021/01/01 03:32:48;;;;;;;31.10;28.17;;;4.10;99.90;;;;;;5000390;28;20640;-87
2021/01/01 03:35:15;;;;;;;30.00;27.10;;;4.20;99.90;;;;;;5019264;28;20650;-88
2021/01/01 03:37:41;;;;;;;31.37;28.30;;;4.10;99.90;;;;;;5020249;28;20636;-87
2021/01/01 03:40:09;;;;;;;28.50;25.77;;;4.00;99.90;;;;;;5017218;28;20683;-87
2021/01/01 03:42:35;;;;;;;27.63;25.00;;;4.00;99.90;;;;;;5018388;28;20765;-87
2021/01/01 03:45:03;;;;;;;22.67;20.53;;;4.00;99.90;;;;;;5018833;28;20634;-88
2021/01/01 03:47:29;;;;;;;19.20;17.33;;;4.00;99.90;;;;;;5020690;28;20682;-87
2021/01/01 03:49:57;;;;;;;17.73;16.03;;;4.00;99.90;;;;;;5018897;28;20709;-88
2021/01/01 03:52:23;;;;;;;17.20;15.70;;;4.00;99.90;;;;;;5017934;28;20640;-87
2021/01/01 03:54:49;;;;;;;15.63;14.17;;;4.00;99.90;;;;;;5021605;28;20644;-88
2021/01/01 03:57:16;;;;;;;14.43;13.13;;;4.00;99.90;;;;;;5022004;28;20649;-87
2021/01/01 03:59:43;;;;;;;14.33;12.97;;;4.00;99.90;;;;;;5028631;28;20659;-90
2021/01/01 04:02:15;;;;;;;13.83;12.60;;;4.00;99.90;;;;;;5034478;28;20744;-91
2021/01/01 04:04:42;;;;;;;14.10;12.80;;;4.00;99.90;;;;;;5030395;28;20650;-90
2021/01/01 04:07:09;;;;;;;14.30;12.97;;;4.00;99.90;;;;;;5027288;28;20708;-91
2021/01/01 04:09:35;;;;;;;13.30;12.00;;;3.90;99.90;;;;;;5027335;28;20687;-90
2021/01/01 04:12:02;;;;;;;13.83;12.53;;;4.00;99.90;;;;;;5028055;28;20628;-92
2021/01/01 04:14:28;;;;;;;12.97;11.87;;;4.00;99.90;;;;;;5039234;28;20696;-91
2021/01/01 04:16:57;;;;;;;13.10;11.97;;;4.00;99.90;;;;;;5046562;28;20662;-93
2021/01/01 04:19:23;;;;;;;14.23;13.00;;;4.00;99.90;;;;;;5045039;28;20624;-90
2021/01/01 04:21:50;;;;;;;13.33;12.03;;;4.00;99.90;;;;;;5041421;28;20684;-92
2021/01/01 04:24:20;;;;;;;12.73;11.50;;;3.90;99.90;;;;;;5046565;28;20664;-89
2021/01/01 04:26:48;;;;;;;14.27;12.87;;;4.00;99.90;;;;;;5039364;28;20635;-90
2021/01/01 04:29:16;;;;;;;15.43;14.03;;;4.10;99.90;;;;;;5045108;28;20641;-90
2021/01/01 04:31:44;;;;;;;14.50;13.13;;;4.10;99.90;;;;;;5041495;28;20642;-90
2021/01/01 04:34:10;;;;;;;13.73;12.43;;;4.00;99.90;;;;;;5024131;28;20652;-90
2021/01/01 04:36:37;;;;;;;22.63;20.43;;;4.10;99.90;;;;;;5024296;28;21183;-89
2021/01/01 04:39:11;;;;;;;28.77;26.00;;;4.20;99.90;;;;;;5019113;28;20634;-90
2021/01/01 04:41:43;;;;;;;27.33;24.47;;;4.10;99.90;;;;;;5023091;28;20674;-89
2021/01/01 04:44:09;;;;;;;26.03;23.57;;;4.10;99.90;;;;;;5028737;28;20640;-89
2021/01/01 04:46:37;;;;;;;28.23;25.53;;;4.00;99.90;;;;;;5037828;28;21028;-90
2021/01/01 04:49:04;;;;;;;27.87;25.30;;;3.90;99.90;;;;;;5022660;28;20639;-90
2021/01/01 04:51:30;;;;;;;28.57;25.70;;;3.90;99.90;;;;;;5021638;28;20679;-92
2021/01/01 04:53:58;;;;;;;31.00;27.70;;;3.90;99.90;;;;;;5031891;28;20931;-90
2021/01/01 04:56:25;;;;;;;41.07;36.93;;;4.00;99.90;;;;;;5017254;28;20662;-91
2021/01/01 04:58:53;;;;;;;41.27;37.17;;;4.00;99.90;;;;;;5020560;28;20631;-91
2021/01/01 05:01:24;;;;;;;46.30;41.60;;;4.00;99.90;;;;;;5024171;28;20684;-90
2021/01/01 05:03:51;;;;;;;45.83;41.20;;;4.00;99.90;;;;;;5022838;28;20711;-91
2021/01/01 05:06:28;;;;;;;45.87;41.27;;;3.90;99.90;;;;;;4997478;28;20655;-91
2021/01/01 05:08:56;;;;;;;48.97;43.73;;;3.90;99.90;;;;;;5019804;28;20642;-90
2021/01/01 05:11:24;;;;;;;47.67;42.60;;;3.90;99.90;;;;;;5019505;28;20743;-90
2021/01/01 05:13:59;;;;;;;43.23;37.70;;;3.90;99.90;;;;;;5026013;28;20691;-91
2021/01/01 05:16:31;;;;;;;45.23;38.97;;;3.90;99.90;;;;;;5023087;28;20634;-90
2021/01/01 05:18:58;;;;;;;48.30;43.40;;;3.90;99.90;;;;;;5024818;28;20634;-90
2021/01/01 05:21:25;;;;;;;52.67;47.07;;;3.90;99.90;;;;;;5016068;28;21020;-91
2021/01/01 05:23:54;;;;;;;51.27;46.23;;;3.90;99.90;;;;;;5032037;28;21230;-90
2021/01/01 05:26:26;;;;;;;51.73;46.40;;;3.90;99.90;;;;;;5023976;28;20674;-89
2021/01/01 05:28:57;;;;;;;51.00;45.17;;;3.80;99.90;;;;;;5025846;28;20669;-91
2021/01/01 05:31:26;;;;;;;49.00;43.70;;;3.90;99.90;;;;;;5021617;28;20662;-90
2021/01/01 05:34:00;;;;;;;50.17;44.90;;;3.80;99.90;;;;;;5010485;28;20640;-91
2021/01/01 05:36:37;;;;;;;46.53;41.70;;;3.80;99.90;;;;;;5019848;28;21385;-90
2021/01/01 05:39:07;;;;;;;50.23;45.23;;;3.90;99.90;;;;;;5003573;28;20655;-90
2021/01/01 05:41:38;;;;;;;45.10;40.70;;;3.80;99.90;;;;;;4998833;28;20735;-90
2021/01/01 05:44:17;;;;;;;46.27;41.30;;;3.80;99.90;;;;;;5011553;28;20659;-90
2021/01/01 05:47:04;;;;;;;45.83;40.90;;;3.90;99.90;;;;;;5023637;28;20642;-90
2021/01/01 05:49:34;;;;;;;44.50;40.00;;;3.90;99.90;;;;;;5024409;28;20671;-90
2021/01/01 05:52:13;;;;;;;45.83;40.97;;;3.90;99.90;;;;;;5020786;28;20654;-91
2021/01/01 05:54:42;;;;;;;43.67;39.00;;;3.90;99.90;;;;;;5020570;28;20984;-89
2021/01/01 05:57:10;;;;;;;44.00;39.30;;;3.90;99.90;;;;;;5015724;28;20651;-90
2021/01/01 05:59:38;;;;;;;41.57;37.03;;;3.90;99.90;;;;;;5015055;28;20661;-90
2021/01/01 06:02:08;;;;;;;46.40;41.60;;;3.80;99.90;;;;;;5017875;28;20669;-90
2021/01/01 06:04:39;;;;;;;39.90;35.60;;;3.80;99.90;;;;;;5018068;28;21012;-91
2021/01/01 06:07:06;;;;;;;41.70;37.40;;;3.80;99.90;;;;;;5024922;28;20668;-91
2021/01/01 06:09:34;;;;;;;42.17;37.57;;;4.00;99.90;;;;;;5023683;28;20730;-91
2021/01/01 06:12:04;;;;;;;35.60;32.00;;;4.00;99.90;;;;;;5024490;28;20652;-90
2021/01/01 06:14:37;;;;;;;25.80;23.10;;;4.00;99.90;;;;;;5026415;28;20648;-90
2021/01/01 06:17:33;;;;;;;15.93;14.53;;;4.00;99.90;;;;;;5019976;28;21214;-90
2021/01/01 06:19:59;;;;;;;14.67;13.20;;;3.90;99.90;;;;;;5018128;28;20782;-90
2021/01/01 06:22:29;;;;;;;14.97;13.57;;;3.90;99.90;;;;;;5027321;28;21074;-90
2021/01/01 06:24:58;;;;;;;11.83;10.77;;;3.90;99.90;;;;;;5007139;28;21094;-91
2021/01/01 06:27:28;;;;;;;11.97;10.77;;;3.80;99.90;;;;;;5017566;28;20639;-90
2021/01/01 06:29:57;;;;;;;10.27;9.33;;;3.90;99.90;;;;;;5021713;28;20676;-91
2021/01/01 06:32:26;;;;;;;11.53;10.43;;;3.90;99.90;;;;;;5017290;28;20629;-90
2021/01/01 06:34:53;;;;;;;10.23;9.30;;;3.90;99.90;;;;;;5021718;28;21091;-90
2021/01/01 06:37:41;;;;;;;11.27;10.07;;;3.90;99.90;;;;;;5020006;28;20648;-91
2021/01/01 06:40:35;;;;;;;10.23;9.17;;;3.90;99.90;;;;;;5021256;28;20681;-90
2021/01/01 06:43:04;;;;;;;9.90;9.00;;;3.90;99.90;;;;;;5025141;28;20719;-90
2021/01/01 06:45:39;;;;;;;11.50;10.37;;;4.00;99.90;;;;;;5025393;28;21281;-91
2021/01/01 06:48:38;;;;;;;11.73;10.60;;;4.10;99.90;;;;;;5022413;28;20631;-91
2021/01/01 06:51:14;;;;;;;9.77;8.90;;;4.20;99.90;;;;;;5024274;28;20679;-89
2021/01/01 06:53:42;;;;;;;9.60;8.80;;;3.90;99.90;;;;;;5007389;28;20655;-89
2021/01/01 06:56:13;;;;;;;8.10;7.40;;;3.70;99.90;;;;;;5016332;28;20727;-90
2021/01/01 06:58:40;;;;;;;8.90;8.00;;;3.60;99.90;;;;;;5025886;28;20677;-89
2021/01/01 07:01:15;;;;;;;9.63;8.83;;;3.60;99.90;;;;;;5020322;28;20778;-90
2021/01/01 07:03:43;;;;;;;10.07;9.20;;;3.50;99.90;;;;;;5022111;28;20643;-89
2021/01/01 07:06:36;;;;;;;11.53;10.43;;;3.50;99.90;;;;;;5016108;28;20639;-90
2021/01/01 07:09:07;;;;;;;11.00;10.03;;;3.50;99.90;;;;;;4994730;28;20704;-91
2021/01/01 07:11:46;;;;;;;12.33;11.20;;;3.60;99.90;;;;;;5020880;28;20640;-90
2021/01/01 07:14:20;;;;;;;11.60;10.50;;;3.50;99.90;;;;;;5020206;28;20666;-90
2021/01/01 07:16:50;;;;;;;12.23;11.03;;;3.50;99.90;;;;;;5020863;28;20641;-90
2021/01/01 07:19:18;;;;;;;10.00;9.10;;;3.40;99.90;;;;;;5029659;28;20818;-89
2021/01/01 07:21:44;;;;;;;11.33;10.33;;;3.40;99.90;;;;;;5016331;28;20677;-90
2021/01/01 07:24:10;;;;;;;11.03;9.93;;;3.50;99.90;;;;;;5015713;28;20665;-90
2021/01/01 07:26:37;;;;;;;11.20;10.20;;;3.40;99.90;;;;;;5021556;28;20644;-90
2021/01/01 07:29:05;;;;;;;11.50;10.40;;;3.50;99.90;;;;;;5022943;28;20978;-90
2021/01/01 07:31:33;;;;;;;10.77;9.77;;;3.50;99.90;;;;;;5022103;28;20660;-91
2021/01/01 07:34:10;;;;;;;9.27;8.53;;;3.50;99.90;;;;;;5029350;28;20725;-90
2021/01/01 07:36:37;;;;;;;8.77;8.00;;;3.40;99.90;;;;;;5028905;28;20676;-90
2021/01/01 07:39:06;;;;;;;9.27;8.37;;;3.50;99.90;;;;;;5027351;28;21172;-90
2021/01/01 07:41:33;;;;;;;8.83;8.03;;;3.40;99.90;;;;;;5018354;28;20682;-90
2021/01/01 07:43:59;;;;;;;9.20;8.30;;;3.40;99.90;;;;;;5021327;28;20649;-89
2021/01/01 07:46:31;;;;;;;8.37;7.67;;;3.40;99.90;;;;;;5009556;28;21096;-91
2021/01/01 07:48:59;;;;;;;8.30;7.50;;;3.40;99.90;;;;;;5016224;28;20632;-90
2021/01/01 07:51:26;;;;;;;6.67;6.10;;;3.30;99.90;;;;;;5018646;28;20664;-91
2021/01/01 07:53:59;;;;;;;7.67;7.00;;;3.40;99.90;;;;;;5023923;28;20633;-91
2021/01/01 07:56:25;;;;;;;7.80;7.10;;;3.40;99.90;;;;;;5019976;28;20615;-91
2021/01/01 07:58:54;;;;;;;8.20;7.50;;;3.50;99.90;;;;;;5013287;28;20741;-91
2021/01/01 08:01:31;;;;;;;6.87;6.17;;;3.40;99.90;;;;;;5015990;28;20691;-91
2021/01/01 08:03:59;;;;;;;6.90;6.30;;;3.50;99.90;;;;;;5019652;28;21258;-90
2021/01/01 08:06:29;;;;;;;6.10;5.60;;;3.40;99.90;;;;;;5013402;28;21130;-90
2021/01/01 08:09:03;;;;;;;6.07;5.57;;;3.40;99.90;;;;;;5014187;28;20642;-90
2021/01/01 08:11:29;;;;;;;5.90;5.40;;;3.30;99.90;;;;;;5012509;28;20685;-91
2021/01/01 08:14:04;;;;;;;6.23;5.63;;;3.30;99.90;;;;;;5013989;28;20626;-90
2021/01/01 08:16:30;;;;;;;5.30;4.80;;;3.30;99.90;;;;;;5021290;28;20700;-90
2021/01/01 08:18:57;;;;;;;7.00;6.37;;;3.40;99.90;;;;;;5026594;28;20630;-90
2021/01/01 08:21:25;;;;;;;5.90;5.40;;;3.40;99.90;;;;;;5015015;28;20672;-90
2021/01/01 08:23:56;;;;;;;6.07;5.50;;;3.40;99.90;;;;;;5011298;28;20659;-90
2021/01/01 08:26:25;;;;;;;5.90;5.40;;;3.40;99.90;;;;;;5013916;28;20712;-91
2021/01/01 08:28:53;;;;;;;5.20;4.80;;;3.50;99.90;;;;;;5020039;28;20639;-90
2021/01/01 08:31:21;;;;;;;6.83;5.87;;;3.40;99.90;;;;;;5010896;28;20694;-90
2021/01/01 08:33:51;;;;;;;5.30;4.80;;;3.50;99.90;;;;;;5016150;28;20667;-90
2021/01/01 08:36:18;;;;;;;6.13;5.57;;;3.50;99.90;;;;;;5016536;28;20644;-90
2021/01/01 08:38:44;;;;;;;6.10;5.63;;;3.50;99.90;;;;;;5019675;28;20654;-91
2021/01/01 08:41:16;;;;;;;7.17;6.57;;;3.50;99.90;;;;;;5016577;28;20767;-90
2021/01/01 08:43:44;;;;;;;6.80;6.23;;;3.60;99.90;;;;;;5025498;28;20648;-91
2021/01/01 08:46:15;;;;;;;6.50;6.00;;;3.60;99.90;;;;;;5024332;28;20698;-90
2021/01/01 08:48:41;;;;;;;6.90;6.30;;;3.70;99.90;;;;;;5023989;28;20631;-90
2021/01/01 08:51:08;;;;;;;6.03;5.43;;;3.70;99.90;;;;;;5025357;28;20671;-90
2021/01/01 08:53:38;;;;;;;5.83;5.33;;;3.80;99.90;;;;;;5022484;28;20644;-90
2021/01/01 08:56:06;;;;;;;7.23;6.23;;;3.80;99.90;;;;;;5024441;28;20647;-90
2021/01/01 08:58:36;;;;;;;6.37;5.83;;;4.00;99.90;;;;;;5020060;28;20641;-90
2021/01/01 09:01:15;;;;;;;6.20;5.60;;;4.00;99.90;;;;;;5022269;28;20675;-90
2021/01/01 09:03:42;;;;;;;6.67;6.07;;;3.90;99.90;;;;;;5021144;28;20657;-89
2021/01/01 09:06:16;;;;;;;5.67;4.97;;;3.90;99.90;;;;;;5034038;28;20701;-91
2021/01/01 09:08:43;;;;;;;6.17;5.67;;;4.00;99.90;;;;;;5029924;28;20639;-90
2021/01/01 09:11:20;;;;;;;5.70;5.20;;;4.00;99.90;;;;;;5018517;28;20698;-90
2021/01/01 09:13:59;;;;;;;6.10;5.60;;;4.00;99.90;;;;;;5027744;28;20651;-90
2021/01/01 09:16:28;;;;;;;5.90;5.40;;;4.00;99.90;;;;;;5015250;28;20763;-91
2021/01/01 09:18:54;;;;;;;6.30;5.80;;;4.10;99.90;;;;;;5017112;28;20638;-91
2021/01/01 09:21:21;;;;;;;5.97;5.37;;;3.90;99.90;;;;;;5018836;28;20692;-90
2021/01/01 09:23:52;;;;;;;4.43;4.03;;;4.10;99.90;;;;;;5016976;28;20644;-92
2021/01/01 09:26:22;;;;;;;6.27;5.77;;;4.20;99.90;;;;;;5021746;28;20781;-91
2021/01/01 09:28:51;;;;;;;5.90;5.40;;;4.20;99.90;;;;;;5023027;28;21181;-91
2021/01/01 09:31:18;;;;;;;6.00;5.60;;;4.10;99.90;;;;;;5023420;28;20682;-90
2021/01/01 09:34:00;;;;;;;5.60;5.20;;;4.10;99.90;;;;;;5024158;28;20692;-91
2021/01/01 09:36:28;;;;;;;5.90;5.40;;;4.00;99.90;;;;;;5020084;28;20659;-91
2021/01/01 09:38:54;;;;;;;6.40;5.90;;;4.00;99.90;;;;;;5025317;28;20648;-90
2021/01/01 09:41:20;;;;;;;5.27;4.87;;;4.10;99.90;;;;;;5020768;28;20679;-92
2021/01/01 09:43:47;;;;;;;6.03;5.53;;;4.10;99.90;;;;;;5026013;28;20621;-90
2021/01/01 09:46:14;;;;;;;6.07;5.57;;;4.20;99.90;;;;;;5036414;28;20637;-90
2021/01/01 09:48:40;;;;;;;8.03;6.60;;;4.30;99.90;;;;;;5014487;28;20658;-90
2021/01/01 09:51:10;;;;;;;5.17;4.77;;;4.40;99.90;;;;;;5026238;28;20674;-91
2021/01/01 09:53:36;;;;;;;6.70;6.20;;;4.40;99.90;;;;;;5023758;28;20637;-91
2021/01/01 09:56:04;;;;;;;6.03;5.43;;;4.30;99.90;;;;;;5029869;28;20647;-91
2021/01/01 09:58:31;;;;;;;5.90;5.40;;;4.40;99.90;;;;;;5026458;28;20644;-91
2021/01/01 10:00:59;;;;;;;6.97;6.37;;;4.50;99.90;;;;;;5021693;28;21327;-91
2021/01/01 10:03:26;;;;;;;6.70;6.10;;;4.50;99.90;;;;;;5018247;28;20636;-91
2021/01/01 10:05:56;;;;;;;6.37;5.80;;;4.60;99.90;;;;;;5013301;28;21036;-91
2021/01/01 10:08:26;;;;;;;6.83;6.30;;;4.80;99.90;;;;;;5021142;28;20636;-91
2021/01/01 10:10:57;;;;;;;6.93;6.33;;;4.70;99.90;;;;;;5020693;28;21413;-91
2021/01/01 10:13:23;;;;;;;6.50;6.00;;;4.60;99.90;;;;;;4999358;28;20713;-90
2021/01/01 10:15:49;;;;;;;6.77;6.17;;;4.70;99.90;;;;;;5029117;28;21260;-91
2021/01/01 10:18:16;;;;;;;6.30;5.83;;;4.70;99.90;;;;;;5006033;28;20664;-90
2021/01/01 10:20:45;;;;;;;7.67;6.97;;;4.60;99.90;;;;;;5021817;28;20675;-90
2021/01/01 10:23:12;;;;;;;7.00;6.40;;;4.60;99.90;;;;;;5021797;28;20644;-91
2021/01/01 10:25:39;;;;;;;7.10;6.50;;;4.50;99.90;;;;;;5023040;28;20641;-90
2021/01/01 10:28:06;;;;;;;7.63;4.93;;;4.60;99.90;;;;;;5019927;28;20696;-92
2021/01/01 10:30:32;;;;;;;6.13;5.63;;;4.70;99.90;;;;;;5027863;28;20681;-91
2021/01/01 10:32:59;;;;;;;6.20;5.70;;;4.90;99.90;;;;;;5024452;28;21159;-91
2021/01/01 10:35:25;;;;;;;5.70;5.20;;;4.80;99.90;;;;;;5019052;28;20625;-91
2021/01/01 10:37:52;;;;;;;6.20;5.60;;;4.90;99.90;;;;;;5022537;28;20728;-90
2021/01/01 10:40:19;;;;;;;6.20;5.60;;;5.00;99.90;;;;;;5008810;28;20929;-91
2021/01/01 10:42:50;;;;;;;6.30;5.70;;;4.80;99.90;;;;;;5024844;28;20655;-91
2021/01/01 10:45:19;;;;;;;5.80;5.30;;;5.00;99.90;;;;;;5022048;28;20651;-91
2021/01/01 10:47:47;;;;;;;6.10;5.50;;;5.10;99.90;;;;;;5029404;28;20631;-93
2021/01/01 10:50:21;;;;;;;5.50;5.00;;;5.10;99.90;;;;;;5035422;23;20662;-90
2021/01/01 10:52:47;;;;;;;4.80;4.40;;;5.30;99.90;;;;;;5026635;28;20658;-90
2021/01/01 10:55:16;;;;;;;5.70;5.20;;;5.40;99.90;;;;;;5021206;28;20694;-91
2021/01/01 10:57:43;;;;;;;4.63;4.23;;;5.50;99.90;;;;;;5025233;28;20622;-91
2021/01/01 11:00:14;;;;;;;6.10;4.50;;;5.40;99.90;;;;;;5025895;28;21235;-90
2021/01/01 11:02:40;;;;;;;5.47;4.97;;;5.30;99.90;;;;;;5024849;28;20687;-89
2021/01/01 11:05:08;;;;;;;4.67;4.27;;;5.20;99.90;;;;;;5030363;28;20639;-91
2021/01/01 11:07:35;;;;;;;5.70;5.20;;;5.20;99.90;;;;;;5025927;28;21153;-91
2021/01/01 11:10:01;;;;;;;4.90;4.50;;;5.30;99.90;;;;;;5031291;28;20659;-92
2021/01/01 11:12:30;;;;;;;5.40;4.90;;;5.20;99.90;;;;;;5030294;28;20856;-90
2021/01/01 12:24:38;;;;;;;8.60;7.90;;;5.10;99.90;;;;;;5028512;28;20659;-90
2021/01/01 12:27:05;;;;;;;10.40;9.50;;;5.30;99.90;;;;;;5033159;28;20642;-89
2021/01/01 12:29:31;;;;;;;7.00;6.40;;;5.20;99.90;;;;;;5031165;28;20664;-90
2021/01/01 12:31:58;;;;;;;8.00;7.30;;;5.20;99.90;;;;;;5013897;28;20649;-91
2021/01/01 12:34:25;;;;;;;8.90;8.10;;;5.20;99.90;;;;;;5028582;28;20640;-91
2021/01/01 12:36:52;;;;;;;6.90;6.30;;;5.30;99.90;;;;;;5029510;28;20631;-91
2021/01/01 12:39:20;;;;;;;8.10;7.07;;;5.20;99.90;;;;;;5030522;28;20739;-91
2021/01/01 12:41:46;;;;;;;7.23;6.60;;;5.10;99.90;;;;;;5027203;28;20667;-91
2021/01/01 12:44:13;;;;;;;7.30;6.60;;;5.10;99.90;;;;;;5031039;28;20663;-89
2021/01/01 12:46:42;;;;;;;7.03;6.53;;;5.00;99.90;;;;;;5030702;28;21366;-91
2021/01/01 12:49:08;;;;;;;7.80;7.10;;;4.90;99.90;;;;;;5014415;28;21229;-91
2021/01/01 12:51:34;;;;;;;10.33;9.33;;;4.80;99.90;;;;;;5031082;28;20650;-91
2021/01/01 12:54:02;;;;;;;8.60;7.90;;;4.70;99.90;;;;;;5028281;28;20632;-91
2021/01/01 12:56:29;;;;;;;9.97;8.97;;;4.70;99.90;;;;;;5020561;28;20645;-91
2021/01/01 12:58:57;;;;;;;10.97;9.87;;;4.60;99.90;;;;;;5027524;28;20645;-91
2021/01/01 13:01:27;;;;;;;10.10;9.30;;;4.60;99.90;;;;;;5025257;28;20679;-91
2021/01/01 13:03:54;;;;;;;11.87;10.63;;;4.50;99.90;;;;;;5022156;28;20631;-91
2021/01/01 13:06:20;;;;;;;10.57;9.67;;;4.60;99.90;;;;;;5032370;28;20651;-91
2021/01/01 13:08:47;;;;;;;10.07;9.17;;;4.60;99.90;;;;;;5025975;28;20647;-91
2021/01/01 13:11:14;;;;;;;10.40;9.50;;;4.70;99.90;;;;;;5028330;28;20700;-91
2021/01/01 13:13:41;;;;;;;12.87;9.80;;;4.50;99.90;;;;;;5031049;28;20706;-92
2021/01/01 13:16:08;;;;;;;9.50;8.60;;;4.70;99.90;;;;;;5030015;28;20715;-91
2021/01/01 13:18:36;;;;;;;9.40;8.50;;;4.70;99.90;;;;;;5030261;28;21072;-93
2021/01/01 13:21:06;;;;;;;9.40;8.60;;;4.60;99.90;;;;;;5031167;28;20775;-91
2021/01/01 13:23:37;;;;;;;9.70;8.80;;;4.70;99.90;;;;;;5029735;28;20748;-90
2021/01/01 13:26:04;;;;;;;8.43;7.70;;;4.80;99.90;;;;;;5029631;28;20992;-91
2021/01/01 13:28:31;;;;;;;11.03;10.03;;;5.00;99.90;;;;;;5012457;28;21210;-92
2021/01/01 13:30:58;;;;;;;9.23;8.43;;;5.50;99.90;;;;;;5030401;28;21253;-92
2021/01/01 13:33:29;;;;;;;9.77;8.90;;;5.30;99.90;;;;;;5025825;28;20622;-91
2021/01/01 13:35:57;;;;;;;9.43;8.53;;;5.10;99.90;;;;;;5033419;28;20667;-92
2021/01/01 13:38:30;;;;;;;9.97;9.00;;;5.10;99.90;;;;;;5018372;28;20699;-93
2021/01/01 13:40:57;;;;;;;10.53;9.53;;;5.00;99.90;;;;;;5032807;28;21414;-92
2021/01/01 13:43:28;;;;;;;8.83;8.13;;;5.00;99.90;;;;;;5034966;28;20643;-92
2021/01/01 13:48:37;;;;;;;9.97;8.97;;;5.10;99.90;;;;;;5046819;28;20655;-92
2021/01/01 13:51:04;;;;;;;10.20;9.20;;;5.10;99.90;;;;;;5035507;28;20663;-92
2021/01/01 13:53:30;;;;;;;9.70;8.80;;;5.10;99.90;;;;;;5032760;28;20631;-93
2021/01/01 13:55:59;;;;;;;11.10;10.10;;;5.10;99.90;;;;;;5028688;28;21259;-93
2021/01/01 13:58:25;;;;;;;10.57;9.67;;;5.00;99.90;;;;;;5030102;28;20627;-91
2021/01/01 14:00:58;;;;;;;10.37;9.47;;;5.10;99.90;;;;;;5027765;28;20730;-91
2021/01/01 14:03:26;;;;;;;10.43;9.40;;;5.00;99.90;;;;;;5025556;28;21184;-90
2021/01/01 14:05:53;;;;;;;10.27;9.37;;;5.10;99.90;;;;;;5024091;28;20645;-90